Time;durP1;ratioP1;P1;durP2;ratioP2;P2;SDS_P1;SDS_P2;PMS_P1;PMS_P2;Temp;Humidity;BMP_temperature;BMP_pressure;BME280_temperature;BME280_humidity;BME280_pressure;Samples;Min_cycle;Max_cycle;Signal;HPM_P1;HPM_P2
2023/10/28 00:00:39;;;;;;;11.73;2.97;;;;;;;;;;5024536;28;20041;-72
2023/10/28 00:03:05;;;;;;;14.57;2.22;;;;;;;;;;5024846;28;20264;-72
2023/10/28 00:05:31;;;;;;;14.95;2.17;;;;;;;;;;5026042;28;20437;-71
2023/10/28 00:07:56;;;;;;;12.95;2.13;;;;;;;;;;5024828;28;20099;-72
2023/10/28 00:10:21;;;;;;;9.70;2.53;;;;;;;;;;5040849;28;20033;-72
2023/10/28 00:12:47;;;;;;;17.60;3.63;;;;;;;;;;5034052;28;20029;-72
2023/10/28 00:15:13;;;;;;;15.55;3.42;;;;;;;;;;5035899;28;20017;-72
2023/10/28 00:17:38;;;;;;;32.90;4.65;;;;;;;;;;5040192;28;20404;-72
2023/10/28 00:20:04;;;;;;;16.75;3.40;;;;;;;;;;5042048;28;20074;-71
2023/10/28 00:22:30;;;;;;;6.78;2.78;;;;;;;;;;5042011;28;20437;-72
2023/10/28 00:24:58;;;;;;;8.80;2.72;;;;;;;;;;5040030;28;20025;-71
2023/10/28 00:27:23;;;;;;;9.45;2.22;;;;;;;;;;5033569;28;20029;-71
2023/10/28 00:29:52;;;;;;;24.35;3.45;;;;;;;;;;5034334;28;20509;-72
2023/10/28 00:32:17;;;;;;;18.33;3.58;;;;;;;;;;5041779;28;20103;-72
2023/10/28 00:34:42;;;;;;;6.75;2.20;;;;;;;;;;5032826;28;20101;-72
2023/10/28 00:37:08;;;;;;;17.80;2.90;;;;;;;;;;5040551;28;20661;-72
2023/10/28 00:39:33;;;;;;;13.43;3.03;;;;;;;;;;5027048;28;20030;-72
2023/10/28 00:42:01;;;;;;;14.37;3.20;;;;;;;;;;5028926;28;20013;-72
2023/10/28 00:44:26;;;;;;;12.55;2.97;;;;;;;;;;5026223;28;20260;-72
2023/10/28 00:46:51;;;;;;;10.07;2.42;;;;;;;;;;5030968;28;20347;-72
2023/10/28 00:49:16;;;;;;;10.93;2.93;;;;;;;;;;5028080;28;20033;-72
2023/10/28 00:51:43;;;;;;;17.30;2.55;;;;;;;;;;5027289;28;20300;-72
2023/10/28 00:54:08;;;;;;;7.28;2.22;;;;;;;;;;5029750;28;20022;-72
2023/10/28 00:56:34;;;;;;;14.63;2.70;;;;;;;;;;5020696;28;20029;-72
2023/10/28 00:58:59;;;;;;;5.82;2.00;;;;;;;;;;5030577;28;20067;-72
2023/10/28 01:01:25;;;;;;;6.47;1.50;;;;;;;;;;5024498;28;20033;-72
2023/10/28 01:03:50;;;;;;;6.60;2.27;;;;;;;;;;5026710;28;20030;-73
2023/10/28 01:06:16;;;;;;;12.15;2.58;;;;;;;;;;5026832;28;20275;-72
2023/10/28 01:08:41;;;;;;;11.45;2.47;;;;;;;;;;5027313;28;20037;-72
2023/10/28 01:11:07;;;;;;;13.35;2.33;;;;;;;;;;5032020;28;20020;-71
2023/10/28 01:13:32;;;;;;;8.25;2.83;;;;;;;;;;5033346;28;20429;-72
2023/10/28 01:15:59;;;;;;;10.00;2.25;;;;;;;;;;5038530;28;20485;-72
2023/10/28 01:18:24;;;;;;;9.60;2.60;;;;;;;;;;5034080;28;20017;-72
2023/10/28 01:20:49;;;;;;;8.55;2.28;;;;;;;;;;5036083;28;20389;-72
2023/10/28 01:23:15;;;;;;;11.07;3.13;;;;;;;;;;5035734;28;20010;-72
2023/10/28 01:25:40;;;;;;;19.88;2.47;;;;;;;;;;5040527;28;20264;-73
2023/10/28 01:28:08;;;;;;;14.77;2.67;;;;;;;;;;5037226;28;20100;-72
2023/10/28 01:30:33;;;;;;;12.52;2.50;;;;;;;;;;5038792;28;20017;-73
2023/10/28 01:32:58;;;;;;;15.20;2.42;;;;;;;;;;5033932;28;20555;-73
2023/10/28 01:35:23;;;;;;;7.83;2.70;;;;;;;;;;5029083;28;20033;-73
2023/10/28 01:37:49;;;;;;;6.03;1.67;;;;;;;;;;5032116;28;20283;-73
2023/10/28 01:40:14;;;;;;;12.88;2.25;;;;;;;;;;5027547;28;20025;-71
2023/10/28 01:42:44;;;;;;;7.22;1.95;;;;;;;;;;5029861;28;20663;-72
2023/10/28 01:45:09;;;;;;;9.40;1.93;;;;;;;;;;5029719;28;20071;-72
2023/10/28 01:47:35;;;;;;;5.68;2.00;;;;;;;;;;5023586;28;20268;-72
2023/10/28 01:50:00;;;;;;;5.38;1.92;;;;;;;;;;5025348;28;20030;-72
2023/10/28 01:52:25;;;;;;;14.33;2.10;;;;;;;;;;5025078;28;20045;-72
2023/10/28 01:54:51;;;;;;;14.00;2.13;;;;;;;;;;5025709;28;20863;-73
2023/10/28 01:57:17;;;;;;;8.15;2.38;;;;;;;;;;5025524;28;20264;-73
2023/10/28 01:59:43;;;;;;;10.93;2.47;;;;;;;;;;5028070;28;20370;-72
2023/10/28 02:02:09;;;;;;;6.47;1.98;;;;;;;;;;5022522;28;20045;-74
2023/10/28 02:04:34;;;;;;;9.95;2.42;;;;;;;;;;5026350;28;20123;-73
2023/10/28 02:07:00;;;;;;;5.45;2.17;;;;;;;;;;5023854;28;20029;-73
2023/10/28 02:09:26;;;;;;;8.93;1.95;;;;;;;;;;5028403;28;20037;-73
2023/10/28 02:11:52;;;;;;;6.10;1.85;;;;;;;;;;5029268;28;20108;-73
2023/10/28 02:14:18;;;;;;;4.00;2.05;;;;;;;;;;5038439;28;20102;-73
2023/10/28 02:16:43;;;;;;;11.27;2.90;;;;;;;;;;5028226;28;20017;-72
2023/10/28 02:19:08;;;;;;;12.02;2.20;;;;;;;;;;5032998;28;20059;-72
2023/10/28 02:21:35;;;;;;;3.83;1.05;;;;;;;;;;5034686;28;20029;-73
2023/10/28 02:24:00;;;;;;;10.68;2.17;;;;;;;;;;5027214;28;20025;-73
2023/10/28 02:26:25;;;;;;;9.07;3.10;;;;;;;;;;5028440;28;20039;-72
2023/10/28 02:28:50;;;;;;;7.70;2.50;;;;;;;;;;5028669;28;20710;-72
2023/10/28 02:31:16;;;;;;;18.70;3.23;;;;;;;;;;5037007;28;20279;-72
2023/10/28 02:33:41;;;;;;;10.07;2.88;;;;;;;;;;5030824;28;20268;-73
2023/10/28 02:36:07;;;;;;;5.63;1.90;;;;;;;;;;5035897;28;20063;-72
2023/10/28 02:38:32;;;;;;;17.38;2.92;;;;;;;;;;5036361;28;20329;-72
2023/10/28 02:40:58;;;;;;;13.18;2.50;;;;;;;;;;5035313;28;20020;-72
2023/10/28 02:43:23;;;;;;;9.88;2.70;;;;;;;;;;5031472;28;20009;-73
2023/10/28 02:45:48;;;;;;;11.60;2.43;;;;;;;;;;5025225;28;20030;-72
2023/10/28 02:48:13;;;;;;;8.37;3.10;;;;;;;;;;5029678;28;20327;-72
2023/10/28 02:50:38;;;;;;;16.30;2.85;;;;;;;;;;5021643;28;20733;-72
2023/10/28 02:53:04;;;;;;;11.35;3.05;;;;;;;;;;5020295;28;20462;-72
2023/10/28 02:55:29;;;;;;;10.90;2.42;;;;;;;;;;5028684;28;20397;-71
2023/10/28 02:57:54;;;;;;;13.05;3.38;;;;;;;;;;5020092;28;20028;-72
2023/10/28 03:00:19;;;;;;;10.47;3.60;;;;;;;;;;5021380;28;20393;-72
2023/10/28 03:02:44;;;;;;;4.83;2.17;;;;;;;;;;5028858;28;20276;-72
2023/10/28 03:05:09;;;;;;;14.07;3.20;;;;;;;;;;5030693;28;20283;-72
2023/10/28 03:07:35;;;;;;;6.93;2.90;;;;;;;;;;5024412;28;20306;-72
2023/10/28 03:10:00;;;;;;;7.70;3.30;;;;;;;;;;5026105;28;20276;-72
2023/10/28 03:12:25;;;;;;;15.10;2.73;;;;;;;;;;5028626;28;20485;-72
2023/10/28 03:14:50;;;;;;;6.90;2.53;;;;;;;;;;5023360;28;20406;-71
2023/10/28 03:17:17;;;;;;;12.25;2.60;;;;;;;;;;5030613;28;20705;-72
2023/10/28 03:19:42;;;;;;;13.05;2.67;;;;;;;;;;5025251;28;20021;-72
2023/10/28 03:22:07;;;;;;;4.40;2.47;;;;;;;;;;5028543;28;20029;-72
2023/10/28 03:24:33;;;;;;;7.50;3.00;;;;;;;;;;5033814;28;20436;-72
2023/10/28 03:26:58;;;;;;;9.25;2.97;;;;;;;;;;5030779;28;20072;-72
2023/10/28 03:29:23;;;;;;;10.47;2.57;;;;;;;;;;5026806;28;20486;-71
2023/10/28 03:31:48;;;;;;;11.93;2.77;;;;;;;;;;5031086;28;20276;-72
2023/10/28 03:34:13;;;;;;;15.20;2.90;;;;;;;;;;5025056;28;20322;-72
2023/10/28 03:36:39;;;;;;;5.18;1.92;;;;;;;;;;5024067;28;20359;-72
2023/10/28 03:39:04;;;;;;;6.50;2.15;;;;;;;;;;5031722;28;20459;-72
2023/10/28 03:41:29;;;;;;;16.63;2.88;;;;;;;;;;5023674;28;20029;-72
2023/10/28 03:43:54;;;;;;;7.10;2.63;;;;;;;;;;5028324;28;20032;-72
2023/10/28 03:46:22;;;;;;;8.88;2.90;;;;;;;;;;5031673;28;20264;-72
2023/10/28 03:48:48;;;;;;;9.20;2.40;;;;;;;;;;5026416;28;20100;-72
2023/10/28 03:51:13;;;;;;;12.77;2.53;;;;;;;;;;5031050;28;20100;-72
2023/10/28 03:53:38;;;;;;;10.70;2.70;;;;;;;;;;5030237;28;20025;-72
2023/10/28 03:56:05;;;;;;;4.22;1.88;;;;;;;;;;5019168;28;20360;-72
2023/10/28 03:58:30;;;;;;;5.60;2.15;;;;;;;;;;5031906;28;20029;-72
2023/10/28 04:00:56;;;;;;;7.18;1.60;;;;;;;;;;5028802;28;20029;-72
2023/10/28 04:03:21;;;;;;;8.05;1.77;;;;;;;;;;5019619;28;20021;-72
2023/10/28 04:05:47;;;;;;;11.23;2.03;;;;;;;;;;5027896;28;20434;-72
2023/10/28 04:08:13;;;;;;;3.85;1.42;;;;;;;;;;5031105;28;20032;-72
2023/10/28 04:10:38;;;;;;;4.68;1.58;;;;;;;;;;5026608;28;20390;-71
2023/10/28 04:13:03;;;;;;;6.30;1.67;;;;;;;;;;5031966;28;20076;-72
2023/10/28 04:15:29;;;;;;;5.20;1.92;;;;;;;;;;5026281;28;20284;-72
2023/10/28 04:17:54;;;;;;;11.38;2.35;;;;;;;;;;5037183;28;20093;-71
2023/10/28 04:20:20;;;;;;;7.97;1.80;;;;;;;;;;5028777;28;20632;-72
2023/10/28 04:22:45;;;;;;;6.45;1.70;;;;;;;;;;5023007;28;20289;-72
2023/10/28 04:25:10;;;;;;;6.13;1.42;;;;;;;;;;5023577;28;20025;-72
2023/10/28 04:27:35;;;;;;;3.67;1.10;;;;;;;;;;5033102;28;20021;-72
2023/10/28 04:30:03;;;;;;;8.30;1.20;;;;;;;;;;5038112;28;20606;-72
2023/10/28 04:32:29;;;;;;;3.92;0.90;;;;;;;;;;5028101;28;21056;-72
2023/10/28 04:34:54;;;;;;;2.27;1.30;;;;;;;;;;5033887;28;20026;-72
2023/10/28 04:37:19;;;;;;;7.43;1.50;;;;;;;;;;5025644;28;20417;-72
2023/10/28 04:39:45;;;;;;;3.92;1.45;;;;;;;;;;5019938;28;20372;-72
2023/10/28 04:42:10;;;;;;;2.38;0.95;;;;;;;;;;5025369;28;20110;-72
2023/10/28 04:44:35;;;;;;;3.13;1.98;;;;;;;;;;5031713;28;20010;-72
2023/10/28 04:47:03;;;;;;;2.03;1.27;;;;;;;;;;5027099;28;20027;-72
2023/10/28 04:49:29;;;;;;;5.70;1.80;;;;;;;;;;5025328;28;20013;-72
2023/10/28 04:51:54;;;;;;;2.50;1.23;;;;;;;;;;5030803;28;20026;-72
2023/10/28 04:54:19;;;;;;;8.50;1.70;;;;;;;;;;5016960;28;20029;-71
2023/10/28 04:56:44;;;;;;;2.65;1.08;;;;;;;;;;5027028;28;20017;-72
2023/10/28 04:59:10;;;;;;;10.63;1.47;;;;;;;;;;5030633;28;20117;-72
2023/10/28 05:01:35;;;;;;;9.23;1.90;;;;;;;;;;5026351;28;20269;-72
2023/10/28 05:04:00;;;;;;;10.00;1.25;;;;;;;;;;5018474;28;20026;-72
2023/10/28 05:06:25;;;;;;;3.15;1.20;;;;;;;;;;5027313;28;20022;-72
2023/10/28 05:08:51;;;;;;;2.13;1.10;;;;;;;;;;5020527;28;20021;-72
2023/10/28 05:11:16;;;;;;;4.32;1.10;;;;;;;;;;5030691;28;21073;-72
2023/10/28 05:13:42;;;;;;;4.00;1.65;;;;;;;;;;5031074;28;20428;-71
2023/10/28 05:16:07;;;;;;;3.92;1.75;;;;;;;;;;5029753;28;20025;-72
2023/10/28 05:18:33;;;;;;;2.95;1.10;;;;;;;;;;5031584;28;20128;-72
2023/10/28 05:20:58;;;;;;;4.47;1.60;;;;;;;;;;5030098;28;20055;-71
2023/10/28 05:23:23;;;;;;;4.03;0.77;;;;;;;;;;5029826;28;20052;-72
2023/10/28 05:25:48;;;;;;;5.20;1.07;;;;;;;;;;5030845;28;20022;-72
2023/10/28 05:28:13;;;;;;;3.00;0.98;;;;;;;;;;5029246;28;20795;-72
2023/10/28 05:30:39;;;;;;;4.53;1.50;;;;;;;;;;5027878;28;20100;-72
2023/10/28 05:33:04;;;;;;;4.13;0.98;;;;;;;;;;5029518;28;20652;-72
2023/10/28 05:35:30;;;;;;;3.65;0.68;;;;;;;;;;5030168;28;20024;-72
2023/10/28 05:37:57;;;;;;;1.67;0.70;;;;;;;;;;5029837;28;20025;-72
2023/10/28 05:40:23;;;;;;;4.20;1.60;;;;;;;;;;5029213;28;20037;-72
2023/10/28 05:42:48;;;;;;;4.07;1.00;;;;;;;;;;5030775;28;20632;-72
2023/10/28 05:45:14;;;;;;;5.45;1.00;;;;;;;;;;5025911;28;20022;-72
2023/10/28 05:47:39;;;;;;;5.60;0.98;;;;;;;;;;5029438;28;20025;-71
2023/10/28 05:50:05;;;;;;;2.90;1.98;;;;;;;;;;5028922;28;20383;-71
2023/10/28 05:52:30;;;;;;;7.13;1.30;;;;;;;;;;5029027;28;20086;-72
2023/10/28 05:54:56;;;;;;;1.70;1.00;;;;;;;;;;5027963;28;20022;-72
2023/10/28 05:57:21;;;;;;;2.77;0.97;;;;;;;;;;5029242;28;20034;-72
2023/10/28 05:59:46;;;;;;;7.97;2.28;;;;;;;;;;5028680;28;20268;-71
2023/10/28 06:02:11;;;;;;;14.23;2.00;;;;;;;;;;5027755;28;20098;-72
2023/10/28 06:04:37;;;;;;;9.32;3.33;;;;;;;;;;5028909;28;20280;-72
2023/10/28 06:07:02;;;;;;;2.85;0.77;;;;;;;;;;5028669;28;20022;-72
2023/10/28 06:09:27;;;;;;;2.92;2.10;;;;;;;;;;5034414;28;20058;-71
2023/10/28 06:11:52;;;;;;;6.05;0.95;;;;;;;;;;5045833;28;20022;-71
2023/10/28 06:14:18;;;;;;;3.17;1.07;;;;;;;;;;5045804;28;20033;-72
2023/10/28 06:16:44;;;;;;;2.58;1.17;;;;;;;;;;5048150;28;20620;-71
2023/10/28 06:19:10;;;;;;;6.00;1.20;;;;;;;;;;5047707;28;20610;-71
2023/10/28 06:21:35;;;;;;;2.15;1.17;;;;;;;;;;5048982;28;20100;-72
2023/10/28 06:24:00;;;;;;;0.65;0.50;;;;;;;;;;5048874;28;20095;-72
2023/10/28 06:26:25;;;;;;;1.50;0.70;;;;;;;;;;5036318;28;20032;-72
2023/10/28 06:28:51;;;;;;;1.20;0.70;;;;;;;;;;5042839;28;20118;-72
2023/10/28 06:31:16;;;;;;;1.13;0.60;;;;;;;;;;5031100;28;20013;-72
2023/10/28 06:33:41;;;;;;;1.05;0.63;;;;;;;;;;5029937;28;20020;-72
2023/10/28 06:36:08;;;;;;;1.23;0.60;;;;;;;;;;5029440;28;20013;-72
2023/10/28 06:38:33;;;;;;;1.17;0.40;;;;;;;;;;5023082;28;20018;-72
2023/10/28 06:40:59;;;;;;;2.10;0.70;;;;;;;;;;5026181;28;20021;-72
2023/10/28 06:43:24;;;;;;;1.55;0.45;;;;;;;;;;5026312;28;20314;-72
2023/10/28 06:45:49;;;;;;;2.72;0.80;;;;;;;;;;5024547;28;20033;-72
2023/10/28 06:48:15;;;;;;;6.97;0.93;;;;;;;;;;5029292;28;20029;-72
2023/10/28 06:50:40;;;;;;;0.60;0.50;;;;;;;;;;5028931;28;20271;-72
2023/10/28 06:53:06;;;;;;;5.68;1.13;;;;;;;;;;5025213;28;20041;-72
2023/10/28 06:55:31;;;;;;;0.77;0.47;;;;;;;;;;5020619;28;20057;-72
2023/10/28 06:57:56;;;;;;;6.77;1.00;;;;;;;;;;5026189;28;20108;-71
2023/10/28 07:00:27;;;;;;;2.75;1.08;;;;;;;;;;5026763;28;20733;-71
2023/10/28 07:02:52;;;;;;;4.13;2.03;;;;;;;;;;5027422;28;20016;-72
2023/10/28 07:05:17;;;;;;;4.03;1.58;;;;;;;;;;5025764;28;20565;-72
2023/10/28 07:07:44;;;;;;;2.37;0.90;;;;;;;;;;5024262;28;20021;-72
2023/10/28 07:10:10;;;;;;;1.48;0.80;;;;;;;;;;5028989;28;20416;-71
2023/10/28 07:12:35;;;;;;;5.07;0.85;;;;;;;;;;5028021;28;20100;-72
2023/10/28 07:15:00;;;;;;;2.08;1.08;;;;;;;;;;5025041;28;20117;-72
2023/10/28 07:17:26;;;;;;;1.15;0.68;;;;;;;;;;5027407;28;20018;-71
2023/10/28 07:19:54;;;;;;;5.07;1.27;;;;;;;;;;5031349;28;20021;-72
2023/10/28 07:22:20;;;;;;;0.20;0.20;;;;;;;;;;5026659;28;20021;-72
2023/10/28 07:24:45;;;;;;;3.92;0.75;;;;;;;;;;5026410;28;20022;-72
2023/10/28 07:27:10;;;;;;;3.60;0.30;;;;;;;;;;5025729;28;20112;-71
2023/10/28 07:29:35;;;;;;;2.60;0.80;;;;;;;;;;5027471;28;20013;-72
2023/10/28 07:32:02;;;;;;;0.65;0.60;;;;;;;;;;5027365;28;20303;-72
2023/10/28 07:34:27;;;;;;;2.90;1.20;;;;;;;;;;5025904;28;20466;-72
2023/10/28 07:36:53;;;;;;;2.15;1.20;;;;;;;;;;5027336;28;20022;-72
2023/10/28 07:39:19;;;;;;;5.20;1.27;;;;;;;;;;5027985;28;20402;-72
2023/10/28 07:41:44;;;;;;;3.40;0.93;;;;;;;;;;5024362;28;20021;-72
2023/10/28 07:44:09;;;;;;;7.30;1.63;;;;;;;;;;5025982;28;20005;-72
2023/10/28 07:46:35;;;;;;;2.78;0.73;;;;;;;;;;5019280;28;20080;-72
2023/10/28 07:49:00;;;;;;;2.40;0.80;;;;;;;;;;5022652;28;20013;-72
2023/10/28 07:51:26;;;;;;;0.75;0.40;;;;;;;;;;5029227;28;20650;-72
2023/10/28 07:53:52;;;;;;;1.65;0.50;;;;;;;;;;5033234;28;20025;-72
2023/10/28 07:56:17;;;;;;;2.20;0.65;;;;;;;;;;5032316;28;20017;-72
2023/10/28 07:58:43;;;;;;;1.25;0.35;;;;;;;;;;5030920;28;20045;-72
2023/10/28 08:01:13;;;;;;;0.77;0.30;;;;;;;;;;5026717;28;20520;-72
2023/10/28 08:03:38;;;;;;;0.32;0.28;;;;;;;;;;5031119;28;20366;-73
2023/10/28 08:06:07;;;;;;;6.07;0.97;;;;;;;;;;5032572;28;20021;-72
2023/10/28 08:08:32;;;;;;;0.45;0.45;;;;;;;;;;5029982;28;20318;-72
2023/10/28 08:11:00;;;;;;;0.33;0.27;;;;;;;;;;5032615;28;20018;-72
2023/10/28 08:13:25;;;;;;;1.25;0.73;;;;;;;;;;5030979;28;20363;-72
2023/10/28 08:15:52;;;;;;;2.00;0.90;;;;;;;;;;5029120;28;20517;-72
2023/10/28 08:18:17;;;;;;;1.90;0.82;;;;;;;;;;5030968;28;20260;-72
2023/10/28 08:20:44;;;;;;;1.38;0.50;;;;;;;;;;5031638;28;20477;-72
2023/10/28 08:23:09;;;;;;;8.05;1.10;;;;;;;;;;5030428;28;20076;-72
2023/10/28 08:25:34;;;;;;;6.40;1.33;;;;;;;;;;5031938;28;20033;-72
2023/10/28 08:27:59;;;;;;;3.00;0.87;;;;;;;;;;5031790;28;20252;-72
2023/10/28 08:30:24;;;;;;;0.87;0.50;;;;;;;;;;5029945;28;20271;-73
2023/10/28 08:32:50;;;;;;;2.57;0.70;;;;;;;;;;5031012;28;20260;-72
2023/10/28 08:35:16;;;;;;;2.05;0.70;;;;;;;;;;5029666;28;20649;-72
2023/10/28 08:37:41;;;;;;;0.50;0.40;;;;;;;;;;5030120;28;20014;-73
2023/10/28 08:40:10;;;;;;;1.00;0.60;;;;;;;;;;5031239;28;20067;-71
2023/10/28 08:42:35;;;;;;;0.52;0.25;;;;;;;;;;5031953;28;20248;-72
2023/10/28 08:45:02;;;;;;;0.35;0.25;;;;;;;;;;5047131;28;20529;-72
2023/10/28 08:47:31;;;;;;;0.57;0.55;;;;;;;;;;5030693;28;20022;-72
2023/10/28 08:49:58;;;;;;;1.40;0.70;;;;;;;;;;5030309;28;20041;-72
2023/10/28 08:52:23;;;;;;;1.08;0.40;;;;;;;;;;5029136;28;20026;-72
2023/10/28 08:54:49;;;;;;;7.27;1.30;;;;;;;;;;5030097;28;20026;-72
2023/10/28 08:57:15;;;;;;;1.13;0.57;;;;;;;;;;5029149;28;20299;-72
2023/10/28 08:59:40;;;;;;;7.32;0.63;;;;;;;;;;5030651;28;20112;-72
2023/10/28 09:02:08;;;;;;;3.90;0.77;;;;;;;;;;5029420;28;20014;-72
2023/10/28 09:04:33;;;;;;;4.53;0.60;;;;;;;;;;5028202;28;20041;-72
2023/10/28 09:07:00;;;;;;;3.40;1.00;;;;;;;;;;5030696;28;20525;-72
2023/10/28 09:09:27;;;;;;;2.85;0.40;;;;;;;;;;5028563;28;20033;-72
2023/10/28 09:11:54;;;;;;;3.95;1.70;;;;;;;;;;5029576;28;20529;-72
2023/10/28 09:14:19;;;;;;;2.42;0.57;;;;;;;;;;5029049;28;20029;-72
2023/10/28 09:16:44;;;;;;;6.40;1.40;;;;;;;;;;5027581;28;20040;-72
2023/10/28 09:19:20;;;;;;;1.40;0.57;;;;;;;;;;5030884;28;20681;-72
2023/10/28 09:21:46;;;;;;;3.67;1.55;;;;;;;;;;5025327;28;20150;-73
2023/10/28 09:24:11;;;;;;;1.77;0.57;;;;;;;;;;5027964;28;20105;-73
2023/10/28 09:26:37;;;;;;;2.10;0.53;;;;;;;;;;5027885;28;20028;-72
2023/10/28 09:29:03;;;;;;;1.27;0.85;;;;;;;;;;5028542;28;20422;-72
2023/10/28 09:31:28;;;;;;;2.25;0.80;;;;;;;;;;5027576;28;20028;-72
2023/10/28 09:33:54;;;;;;;4.13;1.13;;;;;;;;;;5023910;28;20100;-72
2023/10/28 09:36:20;;;;;;;3.45;1.48;;;;;;;;;;5022938;28;20363;-72
2023/10/28 09:38:46;;;;;;;3.78;1.25;;;;;;;;;;5022409;28;20079;-72
2023/10/28 09:41:14;;;;;;;1.67;0.88;;;;;;;;;;5033694;28;20207;-72
2023/10/28 09:43:40;;;;;;;1.65;0.68;;;;;;;;;;5023141;28;20104;-72
2023/10/28 09:46:05;;;;;;;2.92;0.60;;;;;;;;;;5025235;28;20116;-72
2023/10/28 09:48:32;;;;;;;14.70;1.55;;;;;;;;;;5024673;28;20038;-72
2023/10/28 09:50:58;;;;;;;4.50;0.75;;;;;;;;;;5028059;28;20025;-72
2023/10/28 09:53:29;;;;;;;1.02;0.55;;;;;;;;;;5026985;28;20093;-72
2023/10/28 09:55:55;;;;;;;7.47;1.00;;;;;;;;;;5029525;28;20017;-72
2023/10/28 09:58:20;;;;;;;4.40;1.30;;;;;;;;;;5027834;28;20009;-72
2023/10/28 10:00:48;;;;;;;1.02;0.40;;;;;;;;;;5027985;28;20520;-72
2023/10/28 10:03:16;;;;;;;1.10;0.40;;;;;;;;;;5027459;28;20028;-72
2023/10/28 10:05:43;;;;;;;4.55;0.63;;;;;;;;;;5022400;28;20021;-72
2023/10/28 10:08:18;;;;;;;6.30;1.20;;;;;;;;;;5028833;28;20075;-72
2023/10/28 10:10:45;;;;;;;2.42;0.85;;;;;;;;;;5023597;28;20017;-72
2023/10/28 10:13:10;;;;;;;1.95;0.77;;;;;;;;;;5028682;28;20017;-72
2023/10/28 10:15:38;;;;;;;7.25;0.82;;;;;;;;;;5026573;28;20507;-72
2023/10/28 10:18:21;;;;;;;1.80;0.93;;;;;;;;;;5027666;28;20017;-72
2023/10/28 10:20:46;;;;;;;4.88;1.25;;;;;;;;;;5022716;28;20072;-72
2023/10/28 10:23:12;;;;;;;6.38;1.27;;;;;;;;;;5029248;28;20018;-72
2023/10/28 10:25:40;;;;;;;6.32;1.17;;;;;;;;;;5027799;28;20021;-72
2023/10/28 10:28:18;;;;;;;4.32;1.63;;;;;;;;;;5044635;28;20025;-73
2023/10/28 10:30:43;;;;;;;6.80;1.48;;;;;;;;;;5028068;28;20098;-71
2023/10/28 10:33:08;;;;;;;1.73;1.15;;;;;;;;;;5028365;28;20395;-70
2023/10/28 10:35:34;;;;;;;8.98;2.20;;;;;;;;;;5026466;28;20094;-71
2023/10/28 10:38:09;;;;;;;2.60;0.88;;;;;;;;;;5028566;28;20017;-71
2023/10/28 10:40:58;;;;;;;2.20;0.38;;;;;;;;;;5027363;28;20533;-71
2023/10/28 10:43:27;;;;;;;5.70;0.77;;;;;;;;;;5028144;28;20051;-71
2023/10/28 10:45:54;;;;;;;6.13;1.52;;;;;;;;;;5026916;28;20021;-71
2023/10/28 10:48:19;;;;;;;3.42;1.20;;;;;;;;;;5028225;28;20025;-71
2023/10/28 10:50:45;;;;;;;6.18;1.92;;;;;;;;;;5026060;28;20473;-71
2023/10/28 10:53:11;;;;;;;1.60;0.60;;;;;;;;;;5027946;28;20021;-71
2023/10/28 10:55:37;;;;;;;8.02;0.40;;;;;;;;;;5027450;28;20106;-71
2023/10/28 10:58:03;;;;;;;3.95;0.85;;;;;;;;;;5028756;28;20040;-72
2023/10/28 11:00:28;;;;;;;5.25;1.02;;;;;;;;;;5025276;28;20022;-71
2023/10/28 11:02:58;;;;;;;9.63;2.55;;;;;;;;;;5026159;28;20021;-72
2023/10/28 11:05:23;;;;;;;5.72;1.42;;;;;;;;;;5026707;28;20033;-72
2023/10/28 11:07:48;;;;;;;10.90;3.05;;;;;;;;;;5028039;28;20062;-72
2023/10/28 11:10:13;;;;;;;8.88;3.67;;;;;;;;;;5027051;28;20022;-72
2023/10/28 11:12:39;;;;;;;3.38;1.33;;;;;;;;;;5027551;28;20021;-72
2023/10/28 11:15:05;;;;;;;11.65;3.10;;;;;;;;;;5028266;28;20028;-72
2023/10/28 11:17:30;;;;;;;9.40;2.47;;;;;;;;;;5027097;28;20060;-72
2023/10/28 11:20:00;;;;;;;16.08;4.43;;;;;;;;;;5024319;28;20045;-72
2023/10/28 11:22:25;;;;;;;9.05;3.15;;;;;;;;;;5025336;28;20021;-71
2023/10/28 11:24:57;;;;;;;9.27;3.20;;;;;;;;;;5027916;28;20039;-71
2023/10/28 11:27:26;;;;;;;1.85;0.73;;;;;;;;;;5029788;28;20058;-71
2023/10/28 11:29:51;;;;;;;4.22;1.85;;;;;;;;;;5030045;28;20028;-71
2023/10/28 11:32:19;;;;;;;7.40;1.30;;;;;;;;;;5029773;28;20025;-71
2023/10/28 11:34:44;;;;;;;2.75;0.90;;;;;;;;;;5028772;28;20443;-71
2023/10/28 11:37:10;;;;;;;7.35;1.42;;;;;;;;;;5031497;28;20013;-71
2023/10/28 11:39:39;;;;;;;9.45;1.75;;;;;;;;;;5032160;28;20029;-72
2023/10/28 11:42:08;;;;;;;8.73;1.50;;;;;;;;;;5031272;28;20017;-71
2023/10/28 11:44:34;;;;;;;13.00;1.80;;;;;;;;;;5028459;28;20018;-71
2023/10/28 11:46:59;;;;;;;7.18;1.75;;;;;;;;;;5030467;28;20109;-72
2023/10/28 11:49:24;;;;;;;11.40;1.25;;;;;;;;;;5027931;28;20014;-72
2023/10/28 11:51:49;;;;;;;7.15;1.45;;;;;;;;;;5031426;28;20010;-72
2023/10/28 11:54:15;;;;;;;8.03;1.57;;;;;;;;;;5033203;28;20066;-72
2023/10/28 11:56:40;;;;;;;4.47;1.03;;;;;;;;;;5030503;28;20630;-71
2023/10/28 11:59:05;;;;;;;5.10;1.50;;;;;;;;;;5030450;28;20263;-72
2023/10/28 12:01:32;;;;;;;10.60;1.65;;;;;;;;;;5027847;28;20268;-72
2023/10/28 12:03:57;;;;;;;3.53;1.13;;;;;;;;;;5032906;28;20016;-72
2023/10/28 12:06:22;;;;;;;5.60;1.23;;;;;;;;;;5028123;28;20026;-72
2023/10/28 12:08:48;;;;;;;4.78;1.05;;;;;;;;;;5032881;28;20275;-71
2023/10/28 12:11:13;;;;;;;4.78;0.82;;;;;;;;;;5028999;28;20075;-71
2023/10/28 12:13:38;;;;;;;3.70;0.67;;;;;;;;;;5030024;28;20079;-72
2023/10/28 12:16:05;;;;;;;6.00;1.23;;;;;;;;;;5030595;28;20312;-72
2023/10/28 12:18:30;;;;;;;17.98;2.20;;;;;;;;;;5027243;28;20253;-72
2023/10/28 12:20:55;;;;;;;6.38;1.40;;;;;;;;;;5030468;28;20024;-71
2023/10/28 12:23:22;;;;;;;5.45;1.23;;;;;;;;;;5027391;28;20013;-72
2023/10/28 12:25:47;;;;;;;2.55;0.73;;;;;;;;;;5029348;28;20266;-72
2023/10/28 12:28:13;;;;;;;7.27;1.27;;;;;;;;;;5028231;28;20060;-72
2023/10/28 12:30:38;;;;;;;6.55;1.30;;;;;;;;;;5027334;28;20767;-72
2023/10/28 12:33:03;;;;;;;7.78;1.75;;;;;;;;;;5029141;28;20049;-72
2023/10/28 12:35:28;;;;;;;2.93;1.07;;;;;;;;;;5028517;28;20509;-71
2023/10/28 12:37:53;;;;;;;9.50;2.23;;;;;;;;;;5030720;28;20248;-72
2023/10/28 12:40:19;;;;;;;7.47;1.00;;;;;;;;;;5026213;28;20272;-72
2023/10/28 12:42:45;;;;;;;3.10;0.83;;;;;;;;;;5028601;28;20331;-71
2023/10/28 12:45:11;;;;;;;7.15;1.13;;;;;;;;;;5031502;28;20342;-71
2023/10/28 12:47:36;;;;;;;4.35;1.40;;;;;;;;;;5027796;28;20025;-71
2023/10/28 12:50:03;;;;;;;5.60;1.10;;;;;;;;;;5031528;28;20513;-72
2023/10/28 12:52:28;;;;;;;4.88;1.10;;;;;;;;;;5024651;28;20079;-71
2023/10/28 12:54:53;;;;;;;6.68;2.03;;;;;;;;;;5020517;28;20021;-72
2023/10/28 12:57:19;;;;;;;5.83;1.27;;;;;;;;;;5021195;28;20163;-72
2023/10/28 12:59:47;;;;;;;11.38;1.20;;;;;;;;;;5037850;28;20282;-71
2023/10/28 13:02:13;;;;;;;11.65;1.40;;;;;;;;;;5036858;28;20013;-71
2023/10/28 13:04:38;;;;;;;3.55;1.60;;;;;;;;;;5028936;28;20024;-72
2023/10/28 13:07:03;;;;;;;6.57;1.95;;;;;;;;;;5024874;28;20045;-71
2023/10/28 13:09:29;;;;;;;5.20;1.00;;;;;;;;;;5024228;28;20041;-71
2023/10/28 13:11:56;;;;;;;8.02;1.08;;;;;;;;;;5028797;28;20020;-71
2023/10/28 13:14:21;;;;;;;2.53;0.98;;;;;;;;;;5027727;28;20018;-71
2023/10/28 13:16:47;;;;;;;9.73;1.20;;;;;;;;;;5030090;28;20025;-71
2023/10/28 13:19:13;;;;;;;8.52;1.05;;;;;;;;;;5027125;28;20351;-71
2023/10/28 13:21:38;;;;;;;9.10;1.45;;;;;;;;;;5030747;28;20104;-71
2023/10/28 13:24:03;;;;;;;6.17;1.83;;;;;;;;;;5028914;28;20017;-71
2023/10/28 13:26:29;;;;;;;3.45;0.95;;;;;;;;;;5028072;28;20554;-71
2023/10/28 13:28:54;;;;;;;3.28;1.13;;;;;;;;;;5026825;28;20033;-71
2023/10/28 13:31:19;;;;;;;6.57;1.73;;;;;;;;;;5030297;28;20382;-71
2023/10/28 13:33:45;;;;;;;4.57;1.10;;;;;;;;;;5028315;28;20502;-71
2023/10/28 13:36:11;;;;;;;1.50;0.63;;;;;;;;;;5032617;28;20288;-71
2023/10/28 13:38:36;;;;;;;4.50;1.10;;;;;;;;;;5028718;28;20275;-71
2023/10/28 13:41:01;;;;;;;2.15;0.52;;;;;;;;;;5030151;28;20021;-71
2023/10/28 13:43:27;;;;;;;4.15;0.93;;;;;;;;;;5027552;28;20060;-71
2023/10/28 13:45:52;;;;;;;3.15;0.90;;;;;;;;;;5030700;28;20417;-71
2023/10/28 13:48:18;;;;;;;3.33;0.73;;;;;;;;;;5028328;28;20026;-71
2023/10/28 13:50:43;;;;;;;2.63;0.82;;;;;;;;;;5029819;28;20021;-71
2023/10/28 13:53:08;;;;;;;1.40;0.33;;;;;;;;;;5028307;28;20108;-71
2023/10/28 13:55:33;;;;;;;1.17;0.50;;;;;;;;;;5027415;28;20288;-71
2023/10/28 13:57:58;;;;;;;0.30;0.20;;;;;;;;;;5029285;28;20761;-71
2023/10/28 14:00:24;;;;;;;6.70;1.00;;;;;;;;;;5030689;28;20291;-71
2023/10/28 14:02:51;;;;;;;2.05;0.65;;;;;;;;;;5030444;28;20271;-71
2023/10/28 14:05:16;;;;;;;2.78;0.70;;;;;;;;;;5032792;28;20025;-71
2023/10/28 14:07:42;;;;;;;2.33;0.40;;;;;;;;;;5035517;28;20036;-71
2023/10/28 14:10:08;;;;;;;5.57;1.17;;;;;;;;;;5033768;28;20279;-71
2023/10/28 14:12:35;;;;;;;4.00;0.80;;;;;;;;;;5030194;28;20384;-71
2023/10/28 14:15:00;;;;;;;3.60;0.70;;;;;;;;;;5030137;28;20104;-71
2023/10/28 14:17:26;;;;;;;0.73;0.30;;;;;;;;;;5027591;28;20125;-71
2023/10/28 14:19:51;;;;;;;4.72;0.60;;;;;;;;;;5031383;28;20268;-71
2023/10/28 14:22:20;;;;;;;1.63;0.40;;;;;;;;;;5028401;28;20273;-71
2023/10/28 14:24:46;;;;;;;2.53;0.50;;;;;;;;;;5027610;28;20028;-71
2023/10/28 14:27:11;;;;;;;0.53;0.43;;;;;;;;;;5028456;28;20280;-71
2023/10/28 14:29:36;;;;;;;1.70;0.73;;;;;;;;;;5028456;28;20331;-71
2023/10/28 14:32:01;;;;;;;6.47;0.98;;;;;;;;;;5027361;28;20025;-71